sensor_id;sensor_type;location;lat;lon;timestamp;temperature;humidity
2435;DHT22;1228;51.022;6.764;2023-02-23T00:00:29;10.40;99.90
2435;DHT22;1228;51.022;6.764;2023-02-23T00:02:59;10.30;99.90
2435;DHT22;1228;51.022;6.764;2023-02-23T00:05:30;10.30;99.90
2435;DHT22;1228;51.022;6.764;2023-02-23T00:07:56;10.30;99.90
2435;DHT22;1228;51.022;6.764;2023-02-23T00:10:23;10.20;99.90
2435;DHT22;1228;51.022;6.764;2023-02-23T00:12:58;10.30;99.90
2435;DHT22;1228;51.022;6.764;2023-02-23T00:15:25;10.20;99.90
2435;DHT22;1228;51.022;6.764;2023-02-23T00:17:52;10.20;99.90
2435;DHT22;1228;51.022;6.764;2023-02-23T00:20:18;10.30;99.90
2435;DHT22;1228;51.022;6.764;2023-02-23T00:22:54;10.30;99.90
2435;DHT22;1228;51.022;6.764;2023-02-23T00:25:20;10.30;99.90
2435;DHT22;1228;51.022;6.764;2023-02-23T00:27:45;10.30;99.90
2435;DHT22;1228;51.022;6.764;2023-02-23T00:30:12;10.30;99.90
2435;DHT22;1228;51.022;6.764;2023-02-23T00:32:38;10.30;99.90
2435;DHT22;1228;51.022;6.764;2023-02-23T00:35:04;10.30;99.90
2435;DHT22;1228;51.022;6.764;2023-02-23T00:37:34;10.30;99.90
2435;DHT22;1228;51.022;6.764;2023-02-23T00:39:59;10.20;99.90
2435;DHT22;1228;51.022;6.764;2023-02-23T00:42:25;10.20;99.90
2435;DHT22;1228;51.022;6.764;2023-02-23T00:44:56;10.20;99.90
2435;DHT22;1228;51.022;6.764;2023-02-23T00:47:21;10.20;99.90
2435;DHT22;1228;51.022;6.764;2023-02-23T00:49:47;10.20;99.90
2435;DHT22;1228;51.022;6.764;2023-02-23T00:52:13;10.20;99.90
2435;DHT22;1228;51.022;6.764;2023-02-23T00:54:39;10.20;99.90
2435;DHT22;1228;51.022;6.764;2023-02-23T00:57:05;10.10;99.90
2435;DHT22;1228;51.022;6.764;2023-02-23T00:59:31;10.10;99.90
2435;DHT22;1228;51.022;6.764;2023-02-23T01:01:56;10.00;99.90
2435;DHT22;1228;51.022;6.764;2023-02-23T01:04:22;10.00;99.90
2435;DHT22;1228;51.022;6.764;2023-02-23T01:06:47;10.00;99.90
2435;DHT22;1228;51.022;6.764;2023-02-23T01:09:15;10.10;99.90
2435;DHT22;1228;51.022;6.764;2023-02-23T01:11:51;10.00;99.90
2435;DHT22;1228;51.022;6.764;2023-02-23T01:14:17;10.00;99.90
2435;DHT22;1228;51.022;6.764;2023-02-23T01:16:42;10.00;99.90
2435;DHT22;1228;51.022;6.764;2023-02-23T01:19:09;10.00;99.90
2435;DHT22;1228;51.022;6.764;2023-02-23T01:21:38;10.00;99.90
2435;DHT22;1228;51.022;6.764;2023-02-23T01:24:05;10.00;99.90
2435;DHT22;1228;51.022;6.764;2023-02-23T01:26:33;10.10;99.90
2435;DHT22;1228;51.022;6.764;2023-02-23T01:29:02;10.10;99.90
2435;DHT22;1228;51.022;6.764;2023-02-23T01:31:28;10.10;99.90
2435;DHT22;1228;51.022;6.764;2023-02-23T01:33:55;10.10;99.90
2435;DHT22;1228;51.022;6.764;2023-02-23T01:36:21;10.20;99.90
2435;DHT22;1228;51.022;6.764;2023-02-23T01:38:47;10.10;99.90
2435;DHT22;1228;51.022;6.764;2023-02-23T01:41:14;10.10;99.90
2435;DHT22;1228;51.022;6.764;2023-02-23T01:44:01;10.10;99.90
2435;DHT22;1228;51.022;6.764;2023-02-23T01:46:38;10.10;99.90
2435;DHT22;1228;51.022;6.764;2023-02-23T01:49:08;10.10;99.90
2435;DHT22;1228;51.022;6.764;2023-02-23T01:51:39;10.20;99.90
2435;DHT22;1228;51.022;6.764;2023-02-23T01:54:09;10.20;99.90
2435;DHT22;1228;51.022;6.764;2023-02-23T01:56:43;10.20;99.90
2435;DHT22;1228;51.022;6.764;2023-02-23T01:59:11;10.20;99.90
2435;DHT22;1228;51.022;6.764;2023-02-23T02:01:38;10.20;99.90
2435;DHT22;1228;51.022;6.764;2023-02-23T02:04:07;10.20;99.90
2435;DHT22;1228;51.022;6.764;2023-02-23T02:06:35;10.20;99.90
2435;DHT22;1228;51.022;6.764;2023-02-23T02:09:07;10.20;99.90
2435;DHT22;1228;51.022;6.764;2023-02-23T02:11:35;10.20;99.90
2435;DHT22;1228;51.022;6.764;2023-02-23T02:14:18;10.20;99.90
2435;DHT22;1228;51.022;6.764;2023-02-23T02:17:18;10.20;99.90
2435;DHT22;1228;51.022;6.764;2023-02-23T02:33:45;10.00;99.90
2435;DHT22;1228;51.022;6.764;2023-02-23T02:36:45;10.00;99.90
2435;DHT22;1228;51.022;6.764;2023-02-23T02:39:26;10.10;99.90
2435;DHT22;1228;51.022;6.764;2023-02-23T02:47:50;10.00;99.90
2435;DHT22;1228;51.022;6.764;2023-02-23T02:51:12;10.00;99.90
2435;DHT22;1228;51.022;6.764;2023-02-23T02:53:21;10.00;99.90
2435;DHT22;1228;51.022;6.764;2023-02-23T02:55:50;10.00;99.90
2435;DHT22;1228;51.022;6.764;2023-02-23T02:58:17;10.00;99.90
2435;DHT22;1228;51.022;6.764;2023-02-23T03:00:47;10.00;99.90
2435;DHT22;1228;51.022;6.764;2023-02-23T03:03:39;10.00;99.90
2435;DHT22;1228;51.022;6.764;2023-02-23T03:06:33;9.90;99.90
2435;DHT22;1228;51.022;6.764;2023-02-23T03:15:54;9.80;99.90
2435;DHT22;1228;51.022;6.764;2023-02-23T03:19:15;9.70;99.90
2435;DHT22;1228;51.022;6.764;2023-02-23T03:22:34;9.60;99.90
2435;DHT22;1228;51.022;6.764;2023-02-23T03:28:40;9.50;99.90
2435;DHT22;1228;51.022;6.764;2023-02-23T03:31:45;9.50;99.90
2435;DHT22;1228;51.022;6.764;2023-02-23T03:34:41;9.50;99.90
2435;DHT22;1228;51.022;6.764;2023-02-23T03:37:38;9.50;99.90
2435;DHT22;1228;51.022;6.764;2023-02-23T03:40:32;9.50;99.90
2435;DHT22;1228;51.022;6.764;2023-02-23T03:43:25;9.50;99.90
2435;DHT22;1228;51.022;6.764;2023-02-23T03:46:12;9.50;99.90
2435;DHT22;1228;51.022;6.764;2023-02-23T03:49:00;9.50;99.90
2435;DHT22;1228;51.022;6.764;2023-02-23T03:51:49;9.50;99.90
2435;DHT22;1228;51.022;6.764;2023-02-23T03:54:40;9.50;99.90
2435;DHT22;1228;51.022;6.764;2023-02-23T03:57:29;9.50;99.90
2435;DHT22;1228;51.022;6.764;2023-02-23T04:00:20;9.50;99.90
2435;DHT22;1228;51.022;6.764;2023-02-23T04:03:09;9.50;99.90
2435;DHT22;1228;51.022;6.764;2023-02-23T04:05:56;9.50;99.90
2435;DHT22;1228;51.022;6.764;2023-02-23T04:08:41;9.50;99.90
2435;DHT22;1228;51.022;6.764;2023-02-23T04:14:51;9.30;99.90
2435;DHT22;1228;51.022;6.764;2023-02-23T04:17:19;9.30;99.90
2435;DHT22;1228;51.022;6.764;2023-02-23T04:19:50;9.30;99.90
2435;DHT22;1228;51.022;6.764;2023-02-23T04:22:16;9.30;99.90
2435;DHT22;1228;51.022;6.764;2023-02-23T04:24:42;9.20;99.90
2435;DHT22;1228;51.022;6.764;2023-02-23T04:27:07;9.20;99.90
2435;DHT22;1228;51.022;6.764;2023-02-23T04:29:33;9.20;99.90
2435;DHT22;1228;51.022;6.764;2023-02-23T04:31:58;9.10;99.90
2435;DHT22;1228;51.022;6.764;2023-02-23T04:34:24;9.10;99.90
2435;DHT22;1228;51.022;6.764;2023-02-23T04:36:49;9.10;99.90
2435;DHT22;1228;51.022;6.764;2023-02-23T04:39:15;9.10;99.90
2435;DHT22;1228;51.022;6.764;2023-02-23T04:41:41;9.10;99.90
2435;DHT22;1228;51.022;6.764;2023-02-23T04:44:07;9.10;99.90
2435;DHT22;1228;51.022;6.764;2023-02-23T04:46:32;9.10;99.90
2435;DHT22;1228;51.022;6.764;2023-02-23T04:48:58;9.20;99.90
2435;DHT22;1228;51.022;6.764;2023-02-23T04:51:24;9.20;99.90
2435;DHT22;1228;51.022;6.764;2023-02-23T04:53:55;9.20;99.90
2435;DHT22;1228;51.022;6.764;2023-02-23T04:56:20;9.20;99.90
2435;DHT22;1228;51.022;6.764;2023-02-23T04:58:46;9.30;99.90
2435;DHT22;1228;51.022;6.764;2023-02-23T05:01:12;9.30;99.90
2435;DHT22;1228;51.022;6.764;2023-02-23T05:03:37;9.30;99.90
2435;DHT22;1228;51.022;6.764;2023-02-23T05:06:03;9.30;99.90
2435;DHT22;1228;51.022;6.764;2023-02-23T05:08:28;9.30;99.90
2435;DHT22;1228;51.022;6.764;2023-02-23T05:10:54;9.30;99.90
2435;DHT22;1228;51.022;6.764;2023-02-23T05:13:20;9.30;99.90
2435;DHT22;1228;51.022;6.764;2023-02-23T05:15:46;9.30;99.90
2435;DHT22;1228;51.022;6.764;2023-02-23T05:18:11;9.30;99.90
2435;DHT22;1228;51.022;6.764;2023-02-23T05:20:37;9.30;99.90
2435;DHT22;1228;51.022;6.764;2023-02-23T05:23:03;9.30;99.90
2435;DHT22;1228;51.022;6.764;2023-02-23T05:25:28;9.30;99.90
2435;DHT22;1228;51.022;6.764;2023-02-23T05:27:54;9.30;99.90
2435;DHT22;1228;51.022;6.764;2023-02-23T05:30:19;9.30;99.90
2435;DHT22;1228;51.022;6.764;2023-02-23T05:32:45;9.30;99.90
2435;DHT22;1228;51.022;6.764;2023-02-23T05:35:11;9.20;99.90
2435;DHT22;1228;51.022;6.764;2023-02-23T05:37:37;9.20;99.90
2435;DHT22;1228;51.022;6.764;2023-02-23T05:40:03;9.20;99.90
2435;DHT22;1228;51.022;6.764;2023-02-23T05:42:29;9.20;99.90
2435;DHT22;1228;51.022;6.764;2023-02-23T05:44:54;9.20;99.90
2435;DHT22;1228;51.022;6.764;2023-02-23T05:47:20;9.20;99.90
2435;DHT22;1228;51.022;6.764;2023-02-23T05:49:45;9.20;99.90
2435;DHT22;1228;51.022;6.764;2023-02-23T05:52:11;9.20;99.90
2435;DHT22;1228;51.022;6.764;2023-02-23T05:54:36;9.20;99.90
2435;DHT22;1228;51.022;6.764;2023-02-23T05:57:02;9.20;99.90
2435;DHT22;1228;51.022;6.764;2023-02-23T05:59:28;9.20;99.90
2435;DHT22;1228;51.022;6.764;2023-02-23T06:01:53;9.20;99.90
2435;DHT22;1228;51.022;6.764;2023-02-23T06:04:19;9.20;99.90
2435;DHT22;1228;51.022;6.764;2023-02-23T06:06:46;9.20;99.90
2435;DHT22;1228;51.022;6.764;2023-02-23T06:09:12;9.20;99.90
2435;DHT22;1228;51.022;6.764;2023-02-23T06:11:37;9.20;99.90
2435;DHT22;1228;51.022;6.764;2023-02-23T06:14:03;9.20;99.90
2435;DHT22;1228;51.022;6.764;2023-02-23T06:16:28;9.10;99.90
2435;DHT22;1228;51.022;6.764;2023-02-23T06:18:54;9.10;99.90
2435;DHT22;1228;51.022;6.764;2023-02-23T06:21:20;9.10;99.90
2435;DHT22;1228;51.022;6.764;2023-02-23T06:23:45;9.10;99.90
2435;DHT22;1228;51.022;6.764;2023-02-23T06:26:11;9.10;99.90
2435;DHT22;1228;51.022;6.764;2023-02-23T06:28:36;9.10;99.90
2435;DHT22;1228;51.022;6.764;2023-02-23T06:31:02;9.10;99.90
2435;DHT22;1228;51.022;6.764;2023-02-23T06:33:28;9.10;99.90
2435;DHT22;1228;51.022;6.764;2023-02-23T06:35:53;9.10;99.90
2435;DHT22;1228;51.022;6.764;2023-02-23T06:38:19;9.10;99.90
2435;DHT22;1228;51.022;6.764;2023-02-23T06:40:45;9.10;99.90
2435;DHT22;1228;51.022;6.764;2023-02-23T06:43:11;9.10;99.90
2435;DHT22;1228;51.022;6.764;2023-02-23T06:45:36;9.00;99.90
2435;DHT22;1228;51.022;6.764;2023-02-23T06:48:02;9.00;99.90
2435;DHT22;1228;51.022;6.764;2023-02-23T06:50:28;9.00;99.90
2435;DHT22;1228;51.022;6.764;2023-02-23T06:52:54;9.00;99.90
2435;DHT22;1228;51.022;6.764;2023-02-23T06:55:22;9.10;99.90
2435;DHT22;1228;51.022;6.764;2023-02-23T06:57:48;9.00;99.90
2435;DHT22;1228;51.022;6.764;2023-02-23T07:00:16;9.00;99.90
2435;DHT22;1228;51.022;6.764;2023-02-23T07:02:42;9.00;99.90
2435;DHT22;1228;51.022;6.764;2023-02-23T07:05:09;9.00;99.90
2435;DHT22;1228;51.022;6.764;2023-02-23T07:07:35;9.00;99.90
2435;DHT22;1228;51.022;6.764;2023-02-23T07:10:01;9.00;99.90
2435;DHT22;1228;51.022;6.764;2023-02-23T07:12:26;9.00;99.90
2435;DHT22;1228;51.022;6.764;2023-02-23T07:14:52;9.00;99.90
2435;DHT22;1228;51.022;6.764;2023-02-23T07:17:18;9.00;99.90
2435;DHT22;1228;51.022;6.764;2023-02-23T07:19:43;9.00;99.90
2435;DHT22;1228;51.022;6.764;2023-02-23T07:22:09;9.00;99.90
2435;DHT22;1228;51.022;6.764;2023-02-23T07:24:35;9.10;99.90
2435;DHT22;1228;51.022;6.764;2023-02-23T07:27:00;9.10;99.90
2435;DHT22;1228;51.022;6.764;2023-02-23T07:29:26;9.10;99.90
2435;DHT22;1228;51.022;6.764;2023-02-23T07:31:52;9.10;99.90
2435;DHT22;1228;51.022;6.764;2023-02-23T07:34:18;9.10;99.90
2435;DHT22;1228;51.022;6.764;2023-02-23T07:36:44;9.10;99.90
2435;DHT22;1228;51.022;6.764;2023-02-23T07:39:09;9.10;99.90
2435;DHT22;1228;51.022;6.764;2023-02-23T07:41:35;9.10;99.90
2435;DHT22;1228;51.022;6.764;2023-02-23T07:44:01;9.10;99.90
2435;DHT22;1228;51.022;6.764;2023-02-23T07:46:26;9.10;99.90
2435;DHT22;1228;51.022;6.764;2023-02-23T07:48:52;9.10;99.90
2435;DHT22;1228;51.022;6.764;2023-02-23T07:51:18;9.10;99.90
2435;DHT22;1228;51.022;6.764;2023-02-23T07:53:44;9.20;99.90
2435;DHT22;1228;51.022;6.764;2023-02-23T07:56:11;9.20;99.90
2435;DHT22;1228;51.022;6.764;2023-02-23T07:58:38;9.20;99.90
2435;DHT22;1228;51.022;6.764;2023-02-23T08:01:04;9.20;99.90
2435;DHT22;1228;51.022;6.764;2023-02-23T08:03:29;9.20;99.90
2435;DHT22;1228;51.022;6.764;2023-02-23T08:05:55;9.30;99.90
2435;DHT22;1228;51.022;6.764;2023-02-23T08:08:20;9.30;99.90
2435;DHT22;1228;51.022;6.764;2023-02-23T08:10:46;9.30;99.90
2435;DHT22;1228;51.022;6.764;2023-02-23T08:13:15;9.30;99.90
2435;DHT22;1228;51.022;6.764;2023-02-23T08:15:42;9.30;99.90
2435;DHT22;1228;51.022;6.764;2023-02-23T08:18:08;9.30;99.90
2435;DHT22;1228;51.022;6.764;2023-02-23T08:20:33;9.20;99.90
2435;DHT22;1228;51.022;6.764;2023-02-23T08:22:59;9.20;99.90
2435;DHT22;1228;51.022;6.764;2023-02-23T08:25:25;9.30;99.90
2435;DHT22;1228;51.022;6.764;2023-02-23T08:27:53;9.30;99.90
2435;DHT22;1228;51.022;6.764;2023-02-23T08:30:21;9.30;99.90
2435;DHT22;1228;51.022;6.764;2023-02-23T08:32:47;9.30;99.90
2435;DHT22;1228;51.022;6.764;2023-02-23T08:35:13;9.30;99.90
2435;DHT22;1228;51.022;6.764;2023-02-23T08:37:38;9.30;99.90
2435;DHT22;1228;51.022;6.764;2023-02-23T08:40:07;9.40;99.90
2435;DHT22;1228;51.022;6.764;2023-02-23T08:42:33;9.40;99.90
2435;DHT22;1228;51.022;6.764;2023-02-23T08:44:58;9.40;99.90
2435;DHT22;1228;51.022;6.764;2023-02-23T08:47:26;9.40;99.90
2435;DHT22;1228;51.022;6.764;2023-02-23T08:49:52;9.30;99.90
2435;DHT22;1228;51.022;6.764;2023-02-23T08:52:19;9.30;99.90
2435;DHT22;1228;51.022;6.764;2023-02-23T08:54:45;9.20;99.90
2435;DHT22;1228;51.022;6.764;2023-02-23T08:57:11;9.30;99.90
2435;DHT22;1228;51.022;6.764;2023-02-23T08:59:36;9.30;99.90
2435;DHT22;1228;51.022;6.764;2023-02-23T09:02:04;9.30;99.90
2435;DHT22;1228;51.022;6.764;2023-02-23T09:04:33;9.30;99.90
2435;DHT22;1228;51.022;6.764;2023-02-23T09:07:00;9.30;99.90
2435;DHT22;1228;51.022;6.764;2023-02-23T09:09:26;9.30;99.90
2435;DHT22;1228;51.022;6.764;2023-02-23T09:11:52;9.30;99.90
2435;DHT22;1228;51.022;6.764;2023-02-23T09:14:18;9.30;99.90
2435;DHT22;1228;51.022;6.764;2023-02-23T09:16:43;9.30;99.90
2435;DHT22;1228;51.022;6.764;2023-02-23T09:19:09;9.30;99.90
2435;DHT22;1228;51.022;6.764;2023-02-23T09:21:35;9.30;99.90
2435;DHT22;1228;51.022;6.764;2023-02-23T09:24:01;9.30;99.90
2435;DHT22;1228;51.022;6.764;2023-02-23T09:26:27;9.40;99.90
2435;DHT22;1228;51.022;6.764;2023-02-23T09:28:54;9.40;99.90
2435;DHT22;1228;51.022;6.764;2023-02-23T09:31:21;9.40;99.90
2435;DHT22;1228;51.022;6.764;2023-02-23T09:33:48;9.40;99.90
2435;DHT22;1228;51.022;6.764;2023-02-23T09:36:17;9.50;99.90
2435;DHT22;1228;51.022;6.764;2023-02-23T09:38:45;9.50;99.90
2435;DHT22;1228;51.022;6.764;2023-02-23T09:49:53;9.10;99.90
2435;DHT22;1228;51.022;6.764;2023-02-23T09:52:23;9.10;99.90
2435;DHT22;1228;51.022;6.764;2023-02-23T09:54:50;9.20;99.90
2435;DHT22;1228;51.022;6.764;2023-02-23T09:57:20;9.10;99.90
2435;DHT22;1228;51.022;6.764;2023-02-23T09:59:47;9.20;99.90
2435;DHT22;1228;51.022;6.764;2023-02-23T10:02:42;9.20;99.90
2435;DHT22;1228;51.022;6.764;2023-02-23T10:05:13;9.20;99.90
2435;DHT22;1228;51.022;6.764;2023-02-23T10:07:57;9.20;99.90
2435;DHT22;1228;51.022;6.764;2023-02-23T10:10:36;9.20;99.90
2435;DHT22;1228;51.022;6.764;2023-02-23T10:21:39;9.20;99.90
2435;DHT22;1228;51.022;6.764;2023-02-23T10:26:51;9.20;99.90
2435;DHT22;1228;51.022;6.764;2023-02-23T10:29:34;9.20;99.90
2435;DHT22;1228;51.022;6.764;2023-02-23T10:32:06;9.20;99.90
2435;DHT22;1228;51.022;6.764;2023-02-23T10:34:39;9.30;99.90
2435;DHT22;1228;51.022;6.764;2023-02-23T10:37:09;9.30;99.90
2435;DHT22;1228;51.022;6.764;2023-02-23T10:39:35;9.30;99.90
2435;DHT22;1228;51.022;6.764;2023-02-23T10:42:04;9.30;99.90
2435;DHT22;1228;51.022;6.764;2023-02-23T10:44:30;9.20;99.90
2435;DHT22;1228;51.022;6.764;2023-02-23T10:47:10;9.30;99.90
2435;DHT22;1228;51.022;6.764;2023-02-23T10:49:45;9.20;99.90
2435;DHT22;1228;51.022;6.764;2023-02-23T10:52:14;9.20;99.90
2435;DHT22;1228;51.022;6.764;2023-02-23T10:54:50;9.20;99.90
2435;DHT22;1228;51.022;6.764;2023-02-23T10:57:37;9.10;99.90
2435;DHT22;1228;51.022;6.764;2023-02-23T11:02:42;9.10;99.90
2435;DHT22;1228;51.022;6.764;2023-02-23T11:05:43;9.10;99.90
2435;DHT22;1228;51.022;6.764;2023-02-23T11:11:16;9.10;99.90
2435;DHT22;1228;51.022;6.764;2023-02-23T11:13:49;9.10;99.90
2435;DHT22;1228;51.022;6.764;2023-02-23T11:21:26;9.10;99.90
2435;DHT22;1228;51.022;6.764;2023-02-23T11:23:56;9.10;99.90
2435;DHT22;1228;51.022;6.764;2023-02-23T11:26:40;9.10;99.90
2435;DHT22;1228;51.022;6.764;2023-02-23T11:29:38;9.10;99.90
2435;DHT22;1228;51.022;6.764;2023-02-23T11:34:40;9.10;99.90
2435;DHT22;1228;51.022;6.764;2023-02-23T11:39:56;9.10;99.90
2435;DHT22;1228;51.022;6.764;2023-02-23T11:42:27;9.10;99.90
2435;DHT22;1228;51.022;6.764;2023-02-23T11:47:39;9.20;99.90
2435;DHT22;1228;51.022;6.764;2023-02-23T11:50:06;9.20;99.90
2435;DHT22;1228;51.022;6.764;2023-02-23T11:52:35;9.20;99.90
2435;DHT22;1228;51.022;6.764;2023-02-23T11:55:04;9.20;99.90
2435;DHT22;1228;51.022;6.764;2023-02-23T11:57:33;9.30;99.90
2435;DHT22;1228;51.022;6.764;2023-02-23T12:00:11;9.30;99.90
2435;DHT22;1228;51.022;6.764;2023-02-23T12:02:54;9.20;99.90
2435;DHT22;1228;51.022;6.764;2023-02-23T12:05:21;9.20;99.90
2435;DHT22;1228;51.022;6.764;2023-02-23T12:07:59;9.20;99.90
2435;DHT22;1228;51.022;6.764;2023-02-23T12:10:42;9.30;99.90
2435;DHT22;1228;51.022;6.764;2023-02-23T12:15:52;9.30;99.90
2435;DHT22;1228;51.022;6.764;2023-02-23T12:18:58;9.30;99.90
2435;DHT22;1228;51.022;6.764;2023-02-23T12:21:41;9.30;99.90
2435;DHT22;1228;51.022;6.764;2023-02-23T12:26:58;9.20;99.90
2435;DHT22;1228;51.022;6.764;2023-02-23T12:29:49;9.20;99.90
2435;DHT22;1228;51.022;6.764;2023-02-23T12:32:21;9.10;99.90
2435;DHT22;1228;51.022;6.764;2023-02-23T12:34:55;9.00;99.90
2435;DHT22;1228;51.022;6.764;2023-02-23T12:45:29;9.00;99.90
2435;DHT22;1228;51.022;6.764;2023-02-23T12:50:40;9.00;99.90
2435;DHT22;1228;51.022;6.764;2023-02-23T13:07:42;8.90;99.90
2435;DHT22;1228;51.022;6.764;2023-02-23T13:18:36;9.10;99.90
2435;DHT22;1228;51.022;6.764;2023-02-23T13:21:32;9.20;99.90
2435;DHT22;1228;51.022;6.764;2023-02-23T13:26:38;9.50;99.90
2435;DHT22;1228;51.022;6.764;2023-02-23T13:31:57;9.80;99.90
2435;DHT22;1228;51.022;6.764;2023-02-23T13:34:33;9.80;99.90
2435;DHT22;1228;51.022;6.764;2023-02-23T13:37:03;9.80;99.90
2435;DHT22;1228;51.022;6.764;2023-02-23T13:42:34;9.70;99.90
2435;DHT22;1228;51.022;6.764;2023-02-23T13:45:21;9.70;99.90
2435;DHT22;1228;51.022;6.764;2023-02-23T13:50:55;9.80;99.90
2435;DHT22;1228;51.022;6.764;2023-02-23T13:54:02;9.90;99.90
2435;DHT22;1228;51.022;6.764;2023-02-23T13:56:30;10.00;99.90
2435;DHT22;1228;51.022;6.764;2023-02-23T13:59:00;10.30;99.90
2435;DHT22;1228;51.022;6.764;2023-02-23T14:01:32;10.50;99.90
2435;DHT22;1228;51.022;6.764;2023-02-23T14:04:03;10.60;99.90
2435;DHT22;1228;51.022;6.764;2023-02-23T14:06:32;10.60;99.90
2435;DHT22;1228;51.022;6.764;2023-02-23T14:09:18;10.80;99.90
2435;DHT22;1228;51.022;6.764;2023-02-23T14:11:48;11.10;99.90
2435;DHT22;1228;51.022;6.764;2023-02-23T14:20:04;11.30;99.90
2435;DHT22;1228;51.022;6.764;2023-02-23T14:22:33;11.20;99.90
2435;DHT22;1228;51.022;6.764;2023-02-23T14:28:01;11.00;99.90
2435;DHT22;1228;51.022;6.764;2023-02-23T14:30:44;10.90;99.90
2435;DHT22;1228;51.022;6.764;2023-02-23T14:41:29;10.50;99.90
2435;DHT22;1228;51.022;6.764;2023-02-23T14:43:59;10.30;99.90
2435;DHT22;1228;51.022;6.764;2023-02-23T14:46:31;10.10;99.90
2435;DHT22;1228;51.022;6.764;2023-02-23T14:49:09;10.10;99.90
2435;DHT22;1228;51.022;6.764;2023-02-23T14:51:44;9.90;99.90
2435;DHT22;1228;51.022;6.764;2023-02-23T14:56:58;9.70;99.90
2435;DHT22;1228;51.022;6.764;2023-02-23T14:59:27;9.70;99.90
2435;DHT22;1228;51.022;6.764;2023-02-23T15:01:54;9.70;99.90
2435;DHT22;1228;51.022;6.764;2023-02-23T15:04:25;9.70;99.90
2435;DHT22;1228;51.022;6.764;2023-02-23T15:06:57;9.80;99.90
2435;DHT22;1228;51.022;6.764;2023-02-23T15:09:54;9.70;99.90
2435;DHT22;1228;51.022;6.764;2023-02-23T15:12:23;9.80;99.90
2435;DHT22;1228;51.022;6.764;2023-02-23T15:14:56;9.80;99.90
2435;DHT22;1228;51.022;6.764;2023-02-23T15:17:25;9.90;99.90
2435;DHT22;1228;51.022;6.764;2023-02-23T15:20:02;9.90;99.90
2435;DHT22;1228;51.022;6.764;2023-02-23T15:22:36;9.90;99.90
2435;DHT22;1228;51.022;6.764;2023-02-23T15:25:17;9.80;99.90
2435;DHT22;1228;51.022;6.764;2023-02-23T15:27:44;9.80;99.90
2435;DHT22;1228;51.022;6.764;2023-02-23T15:30:22;9.80;99.90
2435;DHT22;1228;51.022;6.764;2023-02-23T15:32:57;9.80;99.90
2435;DHT22;1228;51.022;6.764;2023-02-23T15:35:23;9.80;99.90
2435;DHT22;1228;51.022;6.764;2023-02-23T15:37:49;9.80;99.90
2435;DHT22;1228;51.022;6.764;2023-02-23T15:40:20;9.80;99.90
2435;DHT22;1228;51.022;6.764;2023-02-23T15:42:52;9.80;99.90
2435;DHT22;1228;51.022;6.764;2023-02-23T15:45:39;9.70;99.90
2435;DHT22;1228;51.022;6.764;2023-02-23T15:48:11;9.60;99.90
2435;DHT22;1228;51.022;6.764;2023-02-23T15:50:43;9.60;99.90
2435;DHT22;1228;51.022;6.764;2023-02-23T15:53:31;9.60;99.90
2435;DHT22;1228;51.022;6.764;2023-02-23T15:56:25;9.50;99.90
2435;DHT22;1228;51.022;6.764;2023-02-23T15:59:01;9.50;99.90
2435;DHT22;1228;51.022;6.764;2023-02-23T16:01:29;9.50;99.90
2435;DHT22;1228;51.022;6.764;2023-02-23T16:06:35;9.50;99.90
2435;DHT22;1228;51.022;6.764;2023-02-23T16:11:34;9.50;99.90
2435;DHT22;1228;51.022;6.764;2023-02-23T16:14:01;9.50;99.90
2435;DHT22;1228;51.022;6.764;2023-02-23T16:16:28;9.50;99.90
2435;DHT22;1228;51.022;6.764;2023-02-23T16:18:58;9.50;99.90
2435;DHT22;1228;51.022;6.764;2023-02-23T16:21:28;9.50;99.90
2435;DHT22;1228;51.022;6.764;2023-02-23T16:23:57;9.40;99.90
2435;DHT22;1228;51.022;6.764;2023-02-23T16:28:56;9.30;99.90
2435;DHT22;1228;51.022;6.764;2023-02-23T16:31:40;9.20;99.90
2435;DHT22;1228;51.022;6.764;2023-02-23T16:34:49;9.20;99.90
2435;DHT22;1228;51.022;6.764;2023-02-23T16:37:23;9.20;99.90
2435;DHT22;1228;51.022;6.764;2023-02-23T16:39:50;9.20;99.90
2435;DHT22;1228;51.022;6.764;2023-02-23T16:42:29;9.10;99.90
2435;DHT22;1228;51.022;6.764;2023-02-23T16:44:56;9.10;99.90
2435;DHT22;1228;51.022;6.764;2023-02-23T16:49:51;9.10;99.90
2435;DHT22;1228;51.022;6.764;2023-02-23T16:52:20;9.10;99.90
2435;DHT22;1228;51.022;6.764;2023-02-23T16:54:47;9.10;99.90
2435;DHT22;1228;51.022;6.764;2023-02-23T16:57:24;9.10;99.90
2435;DHT22;1228;51.022;6.764;2023-02-23T16:59:52;9.10;99.90
2435;DHT22;1228;51.022;6.764;2023-02-23T17:02:19;9.10;99.90
2435;DHT22;1228;51.022;6.764;2023-02-23T17:04:47;9.20;99.90
2435;DHT22;1228;51.022;6.764;2023-02-23T17:07:15;9.10;99.90
2435;DHT22;1228;51.022;6.764;2023-02-23T17:09:41;9.10;99.90
2435;DHT22;1228;51.022;6.764;2023-02-23T17:12:10;9.20;99.90
2435;DHT22;1228;51.022;6.764;2023-02-23T17:14:37;9.20;99.90
2435;DHT22;1228;51.022;6.764;2023-02-23T17:17:02;9.20;99.90
2435;DHT22;1228;51.022;6.764;2023-02-23T17:19:28;9.10;99.90
2435;DHT22;1228;51.022;6.764;2023-02-23T17:21:53;9.10;99.90
2435;DHT22;1228;51.022;6.764;2023-02-23T17:24:19;9.10;99.90
2435;DHT22;1228;51.022;6.764;2023-02-23T17:26:48;9.10;99.90
2435;DHT22;1228;51.022;6.764;2023-02-23T17:29:14;9.10;99.90
2435;DHT22;1228;51.022;6.764;2023-02-23T17:31:39;9.10;99.90
2435;DHT22;1228;51.022;6.764;2023-02-23T17:34:05;9.10;99.90
2435;DHT22;1228;51.022;6.764;2023-02-23T17:36:31;9.10;99.90
2435;DHT22;1228;51.022;6.764;2023-02-23T17:38:56;9.10;99.90
2435;DHT22;1228;51.022;6.764;2023-02-23T17:41:23;9.10;99.90
2435;DHT22;1228;51.022;6.764;2023-02-23T17:43:50;9.10;99.90
2435;DHT22;1228;51.022;6.764;2023-02-23T17:46:15;9.10;99.90
2435;DHT22;1228;51.022;6.764;2023-02-23T17:48:41;9.10;99.90
2435;DHT22;1228;51.022;6.764;2023-02-23T17:51:12;9.10;99.90
2435;DHT22;1228;51.022;6.764;2023-02-23T17:53:40;9.00;99.90
2435;DHT22;1228;51.022;6.764;2023-02-23T17:56:08;9.00;99.90
2435;DHT22;1228;51.022;6.764;2023-02-23T17:58:35;9.00;99.90
2435;DHT22;1228;51.022;6.764;2023-02-23T18:01:02;8.90;99.90
2435;DHT22;1228;51.022;6.764;2023-02-23T18:03:30;8.90;99.90
2435;DHT22;1228;51.022;6.764;2023-02-23T18:06:00;8.90;99.90
2435;DHT22;1228;51.022;6.764;2023-02-23T18:08:27;8.80;99.90
2435;DHT22;1228;51.022;6.764;2023-02-23T18:10:53;8.80;99.90
2435;DHT22;1228;51.022;6.764;2023-02-23T18:13:19;8.70;99.90
2435;DHT22;1228;51.022;6.764;2023-02-23T18:15:49;8.70;99.90
2435;DHT22;1228;51.022;6.764;2023-02-23T18:18:16;8.70;99.90
2435;DHT22;1228;51.022;6.764;2023-02-23T18:20:49;8.70;99.90
2435;DHT22;1228;51.022;6.764;2023-02-23T18:23:15;8.70;99.90
2435;DHT22;1228;51.022;6.764;2023-02-23T18:25:41;8.70;99.90
2435;DHT22;1228;51.022;6.764;2023-02-23T18:28:07;8.70;99.90
2435;DHT22;1228;51.022;6.764;2023-02-23T18:30:34;8.70;99.90
2435;DHT22;1228;51.022;6.764;2023-02-23T18:33:01;8.70;99.90
2435;DHT22;1228;51.022;6.764;2023-02-23T18:35:30;8.70;99.90
2435;DHT22;1228;51.022;6.764;2023-02-23T18:37:56;8.70;99.90
2435;DHT22;1228;51.022;6.764;2023-02-23T18:40:21;8.70;99.90
2435;DHT22;1228;51.022;6.764;2023-02-23T18:42:48;8.70;99.90
2435;DHT22;1228;51.022;6.764;2023-02-23T18:45:14;8.70;99.90
2435;DHT22;1228;51.022;6.764;2023-02-23T18:47:40;8.60;99.90
2435;DHT22;1228;51.022;6.764;2023-02-23T18:50:07;8.60;99.90
2435;DHT22;1228;51.022;6.764;2023-02-23T18:52:36;8.70;99.90
2435;DHT22;1228;51.022;6.764;2023-02-23T18:55:03;8.70;99.90
2435;DHT22;1228;51.022;6.764;2023-02-23T18:57:29;8.70;99.90
2435;DHT22;1228;51.022;6.764;2023-02-23T18:59:55;8.70;99.90
2435;DHT22;1228;51.022;6.764;2023-02-23T19:02:20;8.70;99.90
2435;DHT22;1228;51.022;6.764;2023-02-23T19:04:49;8.70;99.90
2435;DHT22;1228;51.022;6.764;2023-02-23T19:07:15;8.70;99.90
2435;DHT22;1228;51.022;6.764;2023-02-23T19:09:43;8.70;99.90